Time;durP1;ratioP1;P1;durP2;ratioP2;P2;SDS_P1;SDS_P2;PMS_P1;PMS_P2;Temp;Humidity;BMP_temperature;BMP_pressure;BME280_temperature;BME280_humidity;BME280_pressure;Samples;Min_cycle;Max_cycle;Signal;HPM_P1;HPM_P2
2021/09/10 00:18:29;;;;;;;2.85;1.33;;;;;;;;;;4177406;34;20122;-63
2021/09/10 00:20:55;;;;;;;2.55;1.90;;;;;;;;;;4182743;34;20144;-64
2021/09/10 00:23:21;;;;;;;1.90;1.42;;;;;;;;;;4156659;34;20129;-63
2021/09/10 00:25:46;;;;;;;1.77;1.45;;;;;;;;;;4176668;34;20134;-66
2021/09/10 00:28:12;;;;;;;2.03;1.55;;;;;;;;;;4166958;34;20246;-65
2021/09/10 00:30:38;;;;;;;2.33;2.00;;;;;;;;;;4163255;34;20225;-66
2021/09/10 00:33:04;;;;;;;3.17;2.20;;;;;;;;;;4162410;34;20157;-66
2021/09/10 00:35:30;;;;;;;1.90;1.45;;;;;;;;;;4165466;34;20546;-63
2021/09/10 00:37:56;;;;;;;2.20;1.73;;;;;;;;;;4178430;34;20241;-65
2021/09/10 00:40:22;;;;;;;3.92;2.62;;;;;;;;;;4178800;34;20137;-65
2021/09/10 00:42:47;;;;;;;6.65;3.28;;;;;;;;;;4178886;34;20521;-66
2021/09/10 00:45:13;;;;;;;4.15;1.92;;;;;;;;;;4178593;34;20140;-63
2021/09/10 00:47:40;;;;;;;6.82;3.95;;;;;;;;;;4178542;34;20113;-66
2021/09/10 00:50:06;;;;;;;12.20;3.17;;;;;;;;;;4165751;34;20102;-63
2021/09/10 00:52:32;;;;;;;2.00;1.70;;;;;;;;;;4163908;34;20126;-66
2021/09/10 00:54:58;;;;;;;8.27;2.50;;;;;;;;;;4163507;34;20214;-66
2021/09/10 00:57:24;;;;;;;3.70;1.87;;;;;;;;;;4163958;34;20127;-66
2021/09/10 00:59:49;;;;;;;7.82;2.70;;;;;;;;;;4165030;34;20218;-66
2021/09/10 01:02:15;;;;;;;11.25;4.07;;;;;;;;;;4164978;34;20125;-64
2021/09/10 01:04:41;;;;;;;4.82;2.08;;;;;;;;;;4163433;34;20204;-65
2021/09/10 01:07:07;;;;;;;2.35;1.55;;;;;;;;;;4163547;34;20110;-64
2021/09/10 01:09:33;;;;;;;1.98;1.50;;;;;;;;;;4163392;34;20130;-63
2021/09/10 01:11:59;;;;;;;3.70;2.05;;;;;;;;;;4163499;34;20106;-66
2021/09/10 01:14:25;;;;;;;4.07;2.35;;;;;;;;;;4163715;34;20575;-64
2021/09/10 01:16:50;;;;;;;3.08;2.10;;;;;;;;;;4163097;34;20490;-65
2021/09/10 01:19:24;;;;;;;5.47;2.47;;;;;;;;;;4163382;34;20107;-66
2021/09/10 01:21:55;;;;;;;2.72;2.20;;;;;;;;;;4164778;34;20095;-66
2021/09/10 01:24:26;;;;;;;3.75;2.10;;;;;;;;;;4164705;34;20119;-65
2021/09/10 01:26:52;;;;;;;3.35;2.50;;;;;;;;;;4164824;34;20537;-65
2021/09/10 01:29:18;;;;;;;6.07;2.30;;;;;;;;;;4164672;34;20591;-66
2021/09/10 01:31:44;;;;;;;3.70;2.30;;;;;;;;;;4163186;34;20611;-65
2021/09/10 01:34:10;;;;;;;1.25;1.20;;;;;;;;;;4164488;34;20106;-65
2021/09/10 01:36:36;;;;;;;2.50;1.62;;;;;;;;;;4164654;34;20226;-66
2021/09/10 01:39:02;;;;;;;1.67;1.58;;;;;;;;;;4164685;34;20462;-63
2021/09/10 01:41:28;;;;;;;5.90;2.62;;;;;;;;;;4164565;34;20129;-66
2021/09/10 01:43:53;;;;;;;4.93;2.42;;;;;;;;;;4164449;34;20597;-65
2021/09/10 01:46:19;;;;;;;5.85;2.78;;;;;;;;;;4164559;34;20514;-64
2021/09/10 01:48:47;;;;;;;7.65;4.07;;;;;;;;;;4164347;34;20122;-66
2021/09/10 01:51:27;;;;;;;8.93;3.12;;;;;;;;;;4164642;34;20111;-63
2021/09/10 01:53:53;;;;;;;17.23;5.85;;;;;;;;;;4164163;34;20119;-65
2021/09/10 01:56:19;;;;;;;15.55;6.93;;;;;;;;;;4162956;34;20214;-67
2021/09/10 01:58:45;;;;;;;17.73;6.60;;;;;;;;;;4164623;34;20130;-66
2021/09/10 02:01:10;;;;;;;17.00;7.12;;;;;;;;;;4164286;34;20130;-67
2021/09/10 02:03:36;;;;;;;13.52;5.97;;;;;;;;;;4164342;34;20099;-67
2021/09/10 02:06:02;;;;;;;14.45;5.87;;;;;;;;;;4164609;34;20540;-66
2021/09/10 02:08:28;;;;;;;16.25;6.72;;;;;;;;;;4164339;34;20117;-66
2021/09/10 02:10:54;;;;;;;16.95;7.00;;;;;;;;;;4164268;34;20200;-64
2021/09/10 02:13:20;;;;;;;10.35;5.57;;;;;;;;;;4164151;34;20173;-65
2021/09/10 02:15:46;;;;;;;6.40;4.22;;;;;;;;;;4164100;34;20227;-67
2021/09/10 02:18:12;;;;;;;6.75;4.15;;;;;;;;;;4164059;34;20126;-67
2021/09/10 02:20:38;;;;;;;5.45;3.72;;;;;;;;;;4162854;34;20126;-66
2021/09/10 02:23:04;;;;;;;8.35;3.97;;;;;;;;;;4162599;34;20462;-68
2021/09/10 02:25:30;;;;;;;4.12;3.17;;;;;;;;;;4164221;34;20201;-68
2021/09/10 02:27:55;;;;;;;6.35;3.40;;;;;;;;;;4163080;34;20118;-64
2021/09/10 02:30:22;;;;;;;9.15;3.55;;;;;;;;;;4162716;34;20122;-67
2021/09/10 02:32:48;;;;;;;3.90;2.87;;;;;;;;;;4164429;34;20107;-68
2021/09/10 02:35:14;;;;;;;5.47;3.05;;;;;;;;;;4164020;34;20521;-70
2021/09/10 02:37:39;;;;;;;7.00;3.42;;;;;;;;;;4163960;34;20509;-67
2021/09/10 02:40:06;;;;;;;6.47;3.00;;;;;;;;;;4164102;34;20106;-66
2021/09/10 02:42:32;;;;;;;6.60;3.25;;;;;;;;;;4164250;34;20129;-65
2021/09/10 02:44:58;;;;;;;4.93;3.47;;;;;;;;;;4163969;34;20131;-69
2021/09/10 02:47:24;;;;;;;4.75;3.20;;;;;;;;;;4162778;34;20110;-66
2021/09/10 02:49:49;;;;;;;8.02;3.17;;;;;;;;;;4163888;34;20121;-68
2021/09/10 02:52:15;;;;;;;6.25;3.20;;;;;;;;;;4162535;34;20110;-68
2021/09/10 02:54:41;;;;;;;6.18;3.30;;;;;;;;;;4163437;34;20219;-67
2021/09/10 02:57:07;;;;;;;10.00;3.90;;;;;;;;;;4163915;34;20536;-63
2021/09/10 02:59:33;;;;;;;15.77;4.28;;;;;;;;;;4163341;34;20126;-64
2021/09/10 03:01:59;;;;;;;6.80;3.90;;;;;;;;;;4160481;34;20127;-68
2021/09/10 03:04:24;;;;;;;6.32;4.03;;;;;;;;;;4161989;34;20114;-69
2021/09/10 03:06:50;;;;;;;6.90;3.45;;;;;;;;;;4175776;34;20533;-69
2021/09/10 03:09:16;;;;;;;11.80;4.68;;;;;;;;;;4158049;34;20122;-68
2021/09/10 03:11:42;;;;;;;8.95;4.35;;;;;;;;;;4174410;34;20157;-67
2021/09/10 03:14:08;;;;;;;8.73;5.00;;;;;;;;;;4174347;34;20118;-68
2021/09/10 03:16:34;;;;;;;11.65;5.47;;;;;;;;;;4157831;34;20227;-66
2021/09/10 03:19:00;;;;;;;11.63;5.85;;;;;;;;;;4148413;34;20208;-69
2021/09/10 03:21:26;;;;;;;9.95;6.50;;;;;;;;;;4138516;34;20119;-68
2021/09/10 03:23:52;;;;;;;13.60;6.37;;;;;;;;;;4136039;34;20118;-69
2021/09/10 03:26:19;;;;;;;14.02;6.25;;;;;;;;;;4136824;34;20560;-67
2021/09/10 03:28:45;;;;;;;15.15;7.03;;;;;;;;;;4136494;34;20114;-70
2021/09/10 03:31:14;;;;;;;10.57;5.85;;;;;;;;;;4121710;34;20547;-67
2021/09/10 03:33:40;;;;;;;8.75;4.78;;;;;;;;;;4133444;34;20542;-70
2021/09/10 03:36:06;;;;;;;6.97;3.65;;;;;;;;;;4139613;34;20155;-66
2021/09/10 03:38:32;;;;;;;6.32;3.60;;;;;;;;;;4141813;34;20138;-67
2021/09/10 03:40:58;;;;;;;7.82;4.32;;;;;;;;;;4145494;34;20115;-67
2021/09/10 03:43:24;;;;;;;8.40;3.50;;;;;;;;;;4149690;34;20531;-68
2021/09/10 03:45:50;;;;;;;3.45;2.92;;;;;;;;;;4138759;34;20200;-70
2021/09/10 03:52:25;;;;;;;5.15;3.30;;;;;;;;;;4277320;28;20211;-63
2021/09/10 03:54:51;;;;;;;3.17;2.83;;;;;;;;;;4170118;34;20170;-66
2021/09/10 03:57:17;;;;;;;3.70;2.83;;;;;;;;;;4164942;34;20222;-63
2021/09/10 03:59:43;;;;;;;6.95;3.08;;;;;;;;;;4176732;34;20121;-69
2021/09/10 04:02:09;;;;;;;5.47;3.28;;;;;;;;;;4172855;34;20122;-68
2021/09/10 04:04:35;;;;;;;5.40;3.87;;;;;;;;;;4163279;34;20123;-69
2021/09/10 04:07:01;;;;;;;4.68;2.83;;;;;;;;;;4163311;34;20126;-68
2021/09/10 04:09:27;;;;;;;7.95;3.85;;;;;;;;;;4163251;34;20276;-68
2021/09/10 04:11:53;;;;;;;12.93;3.17;;;;;;;;;;4174503;34;20497;-65
2021/09/10 04:14:19;;;;;;;3.90;2.95;;;;;;;;;;4177642;34;20132;-65
2021/09/10 04:16:45;;;;;;;7.90;3.20;;;;;;;;;;4178945;34;20109;-68
2021/09/10 04:19:10;;;;;;;5.95;2.65;;;;;;;;;;4178676;34;20122;-64
2021/09/10 04:21:37;;;;;;;2.92;2.62;;;;;;;;;;4178824;34;20235;-68
2021/09/10 04:24:03;;;;;;;7.47;2.87;;;;;;;;;;4178934;34;20124;-68
2021/09/10 04:27:10;;;;;;;4.28;3.20;;;;;;;;;;4178835;34;20112;-65
2021/09/10 04:29:36;;;;;;;3.95;3.42;;;;;;;;;;4171168;34;20211;-66
2021/09/10 04:32:02;;;;;;;7.80;3.90;;;;;;;;;;4175911;34;20545;-66
2021/09/10 04:34:28;;;;;;;4.28;3.00;;;;;;;;;;4166163;34;20111;-65
2021/09/10 04:36:54;;;;;;;4.50;3.30;;;;;;;;;;4165029;34;20106;-69
2021/09/10 04:39:19;;;;;;;5.55;3.30;;;;;;;;;;4165028;34;20117;-66
2021/09/10 04:41:45;;;;;;;5.40;2.85;;;;;;;;;;4164956;34;20114;-66
2021/09/10 04:45:01;;;;;;;12.63;3.65;;;;;;;;;;4165354;34;20486;-69
2021/09/10 04:47:27;;;;;;;4.82;3.17;;;;;;;;;;4167704;34;20474;-67
2021/09/10 04:49:53;;;;;;;4.68;2.90;;;;;;;;;;4164916;34;20119;-65
2021/09/10 04:52:19;;;;;;;8.70;3.25;;;;;;;;;;4170066;34;20225;-65
2021/09/10 04:54:45;;;;;;;5.37;3.00;;;;;;;;;;4173987;34;20212;-67
2021/09/10 04:57:10;;;;;;;4.00;2.90;;;;;;;;;;4164684;34;20241;-66
2021/09/10 04:59:36;;;;;;;5.70;2.50;;;;;;;;;;4159017;34;20118;-68
2021/09/10 05:02:02;;;;;;;5.00;3.20;;;;;;;;;;4178680;34;20213;-67
2021/09/10 05:04:28;;;;;;;12.77;3.50;;;;;;;;;;4178623;34;20489;-66
2021/09/10 05:06:54;;;;;;;6.22;3.60;;;;;;;;;;4177020;34;20485;-65
2021/09/10 05:09:20;;;;;;;7.62;3.78;;;;;;;;;;4163638;34;20228;-69
2021/09/10 05:11:46;;;;;;;5.28;2.95;;;;;;;;;;4164849;34;20099;-66
2021/09/10 05:14:13;;;;;;;3.67;2.78;;;;;;;;;;4164669;34;20117;-68
2021/09/10 05:16:40;;;;;;;4.60;2.58;;;;;;;;;;4164653;34;20154;-65
2021/09/10 05:19:06;;;;;;;5.43;3.22;;;;;;;;;;4164611;34;20083;-66
2021/09/10 05:21:32;;;;;;;4.43;2.75;;;;;;;;;;4164428;34;20098;-68
2021/09/10 05:23:58;;;;;;;8.35;3.17;;;;;;;;;;4164735;34;20515;-68
2021/09/10 05:26:25;;;;;;;7.00;3.30;;;;;;;;;;4164449;34;20125;-65
2021/09/10 05:28:50;;;;;;;16.50;3.20;;;;;;;;;;4164882;34;20103;-64
2021/09/10 05:31:16;;;;;;;7.28;3.03;;;;;;;;;;4164417;34;20131;-65
2021/09/10 05:33:42;;;;;;;4.28;2.83;;;;;;;;;;4164555;34;20126;-67
2021/09/10 05:36:08;;;;;;;3.35;3.00;;;;;;;;;;4164419;34;20127;-65
2021/09/10 05:38:34;;;;;;;5.20;3.30;;;;;;;;;;4151967;34;20458;-66
2021/09/10 05:41:00;;;;;;;5.40;2.80;;;;;;;;;;4164138;34;20119;-65
2021/09/10 05:43:26;;;;;;;5.47;3.15;;;;;;;;;;4164548;34;20538;-67
2021/09/10 05:45:52;;;;;;;7.37;3.10;;;;;;;;;;4164334;34;20103;-66
2021/09/10 05:48:21;;;;;;;7.87;3.00;;;;;;;;;;4151730;34;20132;-66
2021/09/10 05:50:47;;;;;;;3.35;2.97;;;;;;;;;;4164207;34;20106;-65
2021/09/10 05:53:13;;;;;;;5.62;3.22;;;;;;;;;;4149574;34;20224;-65
2021/09/10 05:55:39;;;;;;;3.62;2.95;;;;;;;;;;4149649;34;20193;-66
2021/09/10 05:58:05;;;;;;;4.60;3.17;;;;;;;;;;4150905;34;20141;-66
2021/09/10 06:00:31;;;;;;;3.92;3.08;;;;;;;;;;4145802;34;20127;-66
2021/09/10 06:02:57;;;;;;;5.65;2.60;;;;;;;;;;4150720;34;20573;-66
2021/09/10 06:05:23;;;;;;;3.37;2.85;;;;;;;;;;4150766;34;20123;-67
2021/09/10 06:07:48;;;;;;;5.68;3.85;;;;;;;;;;4150878;34;20252;-66
2021/09/10 06:10:17;;;;;;;3.83;2.70;;;;;;;;;;4150645;34;20137;-66
2021/09/10 06:12:44;;;;;;;12.77;7.53;;;;;;;;;;4150797;34;20104;-69
2021/09/10 06:15:10;;;;;;;4.37;3.10;;;;;;;;;;4150619;34;20119;-69
2021/09/10 06:17:36;;;;;;;3.03;2.72;;;;;;;;;;4150672;34;20127;-66
2021/09/10 06:20:03;;;;;;;7.03;3.87;;;;;;;;;;4148572;34;20119;-68
2021/09/10 06:22:29;;;;;;;5.47;3.22;;;;;;;;;;4145538;34;20138;-66
2021/09/10 06:24:55;;;;;;;3.78;2.85;;;;;;;;;;4151640;34;20150;-67
2021/09/10 06:27:21;;;;;;;10.55;3.80;;;;;;;;;;4164161;34;20232;-66
2021/09/10 06:29:47;;;;;;;6.93;3.97;;;;;;;;;;4172030;34;20678;-66
2021/09/10 06:32:12;;;;;;;5.10;3.65;;;;;;;;;;4163692;34;20149;-65
2021/09/10 06:34:38;;;;;;;4.60;3.22;;;;;;;;;;4163451;34;20214;-66
2021/09/10 06:37:04;;;;;;;4.47;3.15;;;;;;;;;;4164217;34;20118;-65
2021/09/10 06:39:30;;;;;;;13.93;4.53;;;;;;;;;;4164063;34;20127;-67
2021/09/10 06:41:57;;;;;;;3.75;3.00;;;;;;;;;;4163902;34;20127;-66
2021/09/10 06:44:23;;;;;;;6.70;3.62;;;;;;;;;;4164046;34;20609;-67
2021/09/10 06:46:49;;;;;;;4.65;2.87;;;;;;;;;;4160699;34;20105;-65
2021/09/10 06:49:15;;;;;;;5.78;2.83;;;;;;;;;;4164292;34;20111;-66
2021/09/10 06:51:41;;;;;;;3.62;2.67;;;;;;;;;;4163192;34;20130;-67
2021/09/10 06:54:07;;;;;;;6.90;2.50;;;;;;;;;;4148864;34;20138;-65
2021/09/10 06:56:32;;;;;;;4.43;3.05;;;;;;;;;;4145438;34;20125;-66
2021/09/10 06:58:58;;;;;;;7.25;2.78;;;;;;;;;;4150354;34;20153;-68
2021/09/10 07:01:24;;;;;;;5.10;2.45;;;;;;;;;;4144825;34;20108;-68
2021/09/10 07:03:50;;;;;;;5.37;3.37;;;;;;;;;;4149341;34;20127;-65
2021/09/10 07:06:16;;;;;;;4.95;2.78;;;;;;;;;;4151593;34;20230;-66
2021/09/10 07:08:42;;;;;;;3.25;2.80;;;;;;;;;;4163902;34;20221;-65
2021/09/10 07:11:08;;;;;;;4.90;2.78;;;;;;;;;;4163670;34;20125;-66
2021/09/10 07:13:34;;;;;;;6.35;2.75;;;;;;;;;;4164028;34;20138;-66
2021/09/10 07:15:59;;;;;;;4.10;2.65;;;;;;;;;;4163683;34;20211;-69
2021/09/10 07:18:25;;;;;;;3.42;2.58;;;;;;;;;;4164100;34;20641;-68
2021/09/10 07:20:51;;;;;;;3.87;2.80;;;;;;;;;;4163985;34;20174;-67
2021/09/10 07:23:17;;;;;;;3.95;2.80;;;;;;;;;;4163649;34;20114;-69
2021/09/10 07:25:43;;;;;;;3.90;2.58;;;;;;;;;;4159831;34;20324;-66
2021/09/10 07:28:08;;;;;;;3.55;2.75;;;;;;;;;;4163901;34;20125;-68
2021/09/10 07:30:34;;;;;;;7.72;3.40;;;;;;;;;;4163856;34;20258;-66
2021/09/10 07:33:00;;;;;;;3.35;2.60;;;;;;;;;;4163532;34;20123;-67
2021/09/10 07:35:26;;;;;;;2.90;2.50;;;;;;;;;;4163678;34;20645;-67
2021/09/10 07:37:52;;;;;;;4.65;2.10;;;;;;;;;;4163677;34;20675;-66
2021/09/10 07:40:18;;;;;;;2.92;2.35;;;;;;;;;;4157529;34;20138;-66
2021/09/10 07:42:44;;;;;;;6.82;2.50;;;;;;;;;;4163569;34;20142;-68
2021/09/10 07:45:11;;;;;;;4.28;2.80;;;;;;;;;;4156425;34;20206;-66
2021/09/10 07:47:38;;;;;;;2.97;2.10;;;;;;;;;;4163501;34;20103;-66
2021/09/10 07:50:04;;;;;;;5.28;2.70;;;;;;;;;;4161490;34;20123;-68
2021/09/10 07:52:30;;;;;;;2.85;2.35;;;;;;;;;;4152449;34;20115;-68
2021/09/10 07:54:56;;;;;;;4.35;2.03;;;;;;;;;;4148485;34;20186;-66
2021/09/10 07:57:23;;;;;;;3.53;2.62;;;;;;;;;;4149815;34;20111;-66
2021/09/10 07:59:55;;;;;;;3.10;2.30;;;;;;;;;;4149903;34;20117;-68
2021/09/10 08:02:26;;;;;;;4.35;2.22;;;;;;;;;;4149762;34;20403;-65
2021/09/10 08:04:52;;;;;;;3.03;2.45;;;;;;;;;;4149996;34;20122;-67
2021/09/10 08:07:18;;;;;;;10.93;3.00;;;;;;;;;;4143471;34;20114;-67
2021/09/10 08:09:43;;;;;;;8.75;2.67;;;;;;;;;;4150066;34;20141;-67
2021/09/10 08:12:09;;;;;;;12.02;3.17;;;;;;;;;;4149440;34;20127;-68
2021/09/10 08:14:35;;;;;;;5.12;3.00;;;;;;;;;;4149708;34;20223;-66
2021/09/10 08:17:01;;;;;;;6.68;3.10;;;;;;;;;;4149493;34;20555;-65
2021/09/10 08:19:27;;;;;;;9.23;3.05;;;;;;;;;;4149849;34;20096;-68
2021/09/10 08:21:53;;;;;;;7.03;2.83;;;;;;;;;;4149408;34;20107;-69
2021/09/10 08:24:18;;;;;;;6.12;3.45;;;;;;;;;;4149694;34;20126;-65
2021/09/10 08:26:44;;;;;;;10.65;3.45;;;;;;;;;;4149557;34;20130;-65
2021/09/10 08:29:10;;;;;;;10.65;3.28;;;;;;;;;;4149676;34;20135;-65
2021/09/10 08:31:36;;;;;;;7.03;3.67;;;;;;;;;;4149442;34;20528;-68
2021/09/10 08:34:03;;;;;;;6.22;3.40;;;;;;;;;;4149693;34;20131;-65
2021/09/10 08:36:29;;;;;;;6.22;4.05;;;;;;;;;;4144068;34;20206;-64
2021/09/10 08:38:55;;;;;;;7.22;3.42;;;;;;;;;;4149280;34;20452;-65
2021/09/10 08:41:22;;;;;;;3.78;2.72;;;;;;;;;;4149602;34;20243;-65
2021/09/10 08:43:48;;;;;;;6.43;2.78;;;;;;;;;;4146076;34;20107;-67
2021/09/10 08:46:15;;;;;;;5.72;2.90;;;;;;;;;;4149592;34;20146;-65
2021/09/10 08:48:47;;;;;;;6.18;3.62;;;;;;;;;;4149366;34;20100;-67
2021/09/10 08:51:13;;;;;;;5.35;2.90;;;;;;;;;;4142688;34;20123;-65
2021/09/10 08:53:39;;;;;;;5.28;2.75;;;;;;;;;;4147808;34;20095;-67
2021/09/10 08:56:05;;;;;;;5.12;2.80;;;;;;;;;;4148071;34;20175;-64
2021/09/10 08:58:31;;;;;;;4.65;3.17;;;;;;;;;;4134899;34;20108;-65
2021/09/10 09:01:00;;;;;;;2.78;1.95;;;;;;;;;;4151350;34;20118;-65
2021/09/10 09:03:33;;;;;;;6.43;2.60;;;;;;;;;;4134615;34;20514;-66
2021/09/10 09:05:59;;;;;;;8.55;3.12;;;;;;;;;;4149882;34;20539;-67
2021/09/10 09:08:24;;;;;;;3.53;2.42;;;;;;;;;;4145744;34;20456;-70
2021/09/10 09:10:52;;;;;;;5.65;2.72;;;;;;;;;;4151466;34;20098;-66
2021/09/10 09:13:18;;;;;;;5.62;2.45;;;;;;;;;;4144724;34;20126;-69
2021/09/10 09:15:44;;;;;;;4.03;2.62;;;;;;;;;;4149870;34;20122;-65
2021/09/10 09:18:10;;;;;;;5.60;3.33;;;;;;;;;;4151237;34;20130;-65
2021/09/10 09:20:36;;;;;;;3.25;2.58;;;;;;;;;;4151008;34;20115;-69
2021/09/10 09:23:04;;;;;;;5.72;2.40;;;;;;;;;;4150868;34;20214;-69
2021/09/10 09:25:40;;;;;;;3.70;2.33;;;;;;;;;;4151106;34;20202;-68
2021/09/10 09:28:22;;;;;;;8.40;3.00;;;;;;;;;;4148686;34;20099;-66
2021/09/10 09:30:50;;;;;;;5.00;2.50;;;;;;;;;;4144723;34;20214;-66
2021/09/10 09:33:18;;;;;;;4.22;2.62;;;;;;;;;;4149592;34;20114;-68
2021/09/10 09:35:45;;;;;;;5.37;3.15;;;;;;;;;;4137404;34;20451;-65
2021/09/10 09:38:21;;;;;;;3.17;2.30;;;;;;;;;;4144889;34;20092;-67
2021/09/10 09:40:55;;;;;;;3.25;2.10;;;;;;;;;;4151029;34;20111;-66
2021/09/10 09:43:23;;;;;;;3.78;2.20;;;;;;;;;;4151022;34;20138;-66
2021/09/10 09:45:51;;;;;;;4.62;2.62;;;;;;;;;;4156794;34;20515;-65
2021/09/10 09:48:17;;;;;;;5.20;2.80;;;;;;;;;;4150035;34;20100;-68
2021/09/10 09:50:43;;;;;;;2.30;2.10;;;;;;;;;;4163251;34;20197;-68
2021/09/10 09:53:09;;;;;;;3.42;2.42;;;;;;;;;;4152490;34;20111;-65
2021/09/10 09:55:35;;;;;;;5.57;2.70;;;;;;;;;;4151008;34;20107;-66
2021/09/10 09:58:05;;;;;;;4.53;2.87;;;;;;;;;;4159813;34;20510;-65
2021/09/10 10:00:35;;;;;;;3.58;2.62;;;;;;;;;;4156794;34;20108;-69
2021/09/10 10:03:03;;;;;;;3.15;2.42;;;;;;;;;;4150870;34;20142;-69
2021/09/10 10:05:49;;;;;;;3.17;2.30;;;;;;;;;;4150780;34;20090;-68
2021/09/10 10:08:16;;;;;;;;;;;;;;;;;;4144134;34;20123;-65
2021/09/10 10:10:47;;;;;;;6.50;2.90;;;;;;;;;;4145122;34;19966;-68
2021/09/10 10:13:19;;;;;;;5.75;3.60;;;;;;;;;;4143939;34;20530;-67
2021/09/10 10:15:45;;;;;;;5.95;3.17;;;;;;;;;;4149505;34;20207;-67
2021/09/10 10:18:11;;;;;;;9.23;3.45;;;;;;;;;;4145027;34;20142;-67
2021/09/10 10:20:46;;;;;;;7.85;3.55;;;;;;;;;;4150569;34;20537;-64
2021/09/10 10:23:46;;;;;;;6.68;3.97;;;;;;;;;;4150983;34;20111;-68
2021/09/10 10:26:16;;;;;;;5.85;3.83;;;;;;;;;;4158113;34;20598;-69
2021/09/10 10:28:47;;;;;;;5.97;4.45;;;;;;;;;;4164751;34;20555;-68
2021/09/10 10:31:13;;;;;;;7.53;4.28;;;;;;;;;;4149310;34;20107;-70
2021/09/10 10:34:05;;;;;;;7.37;4.45;;;;;;;;;;4150790;34;20506;-68
2021/09/10 10:36:35;;;;;;;9.40;4.57;;;;;;;;;;4144938;34;20126;-68
2021/09/10 10:39:14;;;;;;;5.87;4.18;;;;;;;;;;4150403;34;20129;-66
2021/09/10 10:41:46;;;;;;;6.68;3.70;;;;;;;;;;4150526;34;20110;-68
2021/09/10 10:44:33;;;;;;;5.40;4.05;;;;;;;;;;4150421;34;20103;-71
2021/09/10 10:47:06;;;;;;;5.03;3.92;;;;;;;;;;4150529;34;20115;-66
2021/09/10 10:49:33;;;;;;;5.45;3.60;;;;;;;;;;4145467;34;20103;-71
2021/09/10 10:51:59;;;;;;;7.93;4.37;;;;;;;;;;4150237;34;20131;-69
2021/09/10 10:54:29;;;;;;;13.88;5.20;;;;;;;;;;4150298;34;20120;-66
2021/09/10 10:57:03;;;;;;;14.65;5.72;;;;;;;;;;4150440;34;20195;-71
2021/09/10 10:59:29;;;;;;;12.73;6.17;;;;;;;;;;4145181;34;20191;-70
2021/09/10 11:02:14;;;;;;;12.75;5.87;;;;;;;;;;4150295;34;20126;-67
2021/09/10 11:04:41;;;;;;;10.85;6.10;;;;;;;;;;4150133;34;20549;-67
2021/09/10 11:07:07;;;;;;;12.02;6.00;;;;;;;;;;4149674;34;20634;-67
2021/09/10 11:09:33;;;;;;;10.13;5.05;;;;;;;;;;4148261;34;20109;-72
2021/09/10 11:11:59;;;;;;;8.20;4.50;;;;;;;;;;4148034;34;20127;-66
2021/09/10 11:14:31;;;;;;;9.77;4.70;;;;;;;;;;4149370;34;20124;-71
2021/09/10 11:17:10;;;;;;;3.67;2.97;;;;;;;;;;4149735;34;20158;-71
2021/09/10 11:19:36;;;;;;;10.35;4.10;;;;;;;;;;4149599;34;20106;-66
2021/09/10 11:22:02;;;;;;;4.32;3.35;;;;;;;;;;4150253;34;20117;-71
2021/09/10 11:24:31;;;;;;;5.65;3.40;;;;;;;;;;4145153;34;20539;-66
2021/09/10 11:26:57;;;;;;;6.72;3.55;;;;;;;;;;4150220;34;20505;-70
2021/09/10 11:29:23;;;;;;;4.95;3.55;;;;;;;;;;4156101;34;20186;-72
2021/09/10 11:31:49;;;;;;;7.43;3.75;;;;;;;;;;4151562;34;20199;-73
2021/09/10 11:34:32;;;;;;;6.07;3.78;;;;;;;;;;4163977;34;20206;-72
2021/09/10 11:37:02;;;;;;;6.80;3.60;;;;;;;;;;4166006;34;20539;-70
2021/09/10 11:39:28;;;;;;;5.90;3.78;;;;;;;;;;4144521;34;20115;-70
2021/09/10 11:41:54;;;;;;;5.80;4.05;;;;;;;;;;4146387;34;20135;-66
2021/09/10 11:44:19;;;;;;;6.72;4.15;;;;;;;;;;4147675;34;20126;-66
2021/09/10 11:46:45;;;;;;;5.62;3.87;;;;;;;;;;4161037;34;20106;-71
2021/09/10 11:49:12;;;;;;;5.30;4.00;;;;;;;;;;4154571;34;20197;-66
2021/09/10 11:51:42;;;;;;;4.60;3.10;;;;;;;;;;4171444;34;20223;-68
2021/09/10 11:54:09;;;;;;;8.65;3.20;;;;;;;;;;4174620;34;20441;-72
2021/09/10 11:56:35;;;;;;;3.90;3.00;;;;;;;;;;4176387;34;20654;-67
2021/09/10 11:59:01;;;;;;;6.78;3.30;;;;;;;;;;4176666;34;20172;-67
2021/09/10 12:01:40;;;;;;;7.95;4.65;;;;;;;;;;4174433;34;20162;-68
2021/09/10 12:04:07;;;;;;;24.27;5.40;;;;;;;;;;4176924;34;20118;-67
2021/09/10 12:06:57;;;;;;;6.53;3.50;;;;;;;;;;4174232;34;20300;-65
2021/09/10 12:09:33;;;;;;;8.18;4.30;;;;;;;;;;4164290;34;20087;-64
2021/09/10 12:12:17;;;;;;;4.55;3.25;;;;;;;;;;4177006;34;20477;-66
2021/09/10 12:14:52;;;;;;;5.50;2.83;;;;;;;;;;4176725;34;20102;-66
2021/09/10 12:17:24;;;;;;;6.90;3.42;;;;;;;;;;4176547;34;20553;-67
2021/09/10 12:19:56;;;;;;;6.32;3.95;;;;;;;;;;4176711;34;20467;-68
2021/09/10 12:22:42;;;;;;;6.00;3.45;;;;;;;;;;4176737;34;20496;-70
2021/09/10 12:26:13;;;;;;;101.22;17.58;;;;;;;;;;4175695;34;20110;-67
2021/09/10 12:28:39;;;;;;;26.48;6.43;;;;;;;;;;4176563;34;20124;-69
2021/09/10 12:31:09;;;;;;;7.65;4.20;;;;;;;;;;4176755;34;20165;-74
2021/09/10 12:33:39;;;;;;;6.60;3.87;;;;;;;;;;4178327;34;20125;-69
2021/09/10 12:36:07;;;;;;;8.80;4.70;;;;;;;;;;4178507;34;20156;-68
2021/09/10 12:38:35;;;;;;;7.62;4.30;;;;;;;;;;4178666;34;20107;-69
2021/09/10 12:41:03;;;;;;;14.48;5.37;;;;;;;;;;4160153;34;20235;-68
2021/09/10 12:43:29;;;;;;;9.50;5.00;;;;;;;;;;4164932;34;20129;-67
2021/09/10 12:45:55;;;;;;;10.00;5.30;;;;;;;;;;4153703;34;20097;-68
2021/09/10 12:48:21;;;;;;;6.72;4.35;;;;;;;;;;4164774;34;20126;-68
2021/09/10 12:50:47;;;;;;;6.65;4.22;;;;;;;;;;4164628;34;20137;-70
2021/09/10 12:53:13;;;;;;;5.95;3.25;;;;;;;;;;4164509;34;20542;-67
2021/09/10 12:55:39;;;;;;;3.87;3.12;;;;;;;;;;4164195;34;20117;-68
2021/09/10 12:58:06;;;;;;;5.82;2.70;;;;;;;;;;4164845;34;20131;-68
2021/09/10 13:00:33;;;;;;;64.70;8.50;;;;;;;;;;4164815;34;20095;-67
2021/09/10 13:02:59;;;;;;;16.12;5.50;;;;;;;;;;4164744;34;20427;-67
2021/09/10 13:05:25;;;;;;;3.87;2.90;;;;;;;;;;4164760;34;20514;-67
2021/09/10 13:07:51;;;;;;;4.05;2.90;;;;;;;;;;4164846;34;20118;-67
2021/09/10 13:10:16;;;;;;;4.45;2.90;;;;;;;;;;4164802;34;20122;-67
2021/09/10 13:12:43;;;;;;;4.12;2.65;;;;;;;;;;4163341;34;20214;-67
2021/09/10 13:15:09;;;;;;;4.30;2.97;;;;;;;;;;4153616;34;20114;-67
2021/09/10 13:17:35;;;;;;;3.40;2.60;;;;;;;;;;4164686;34;20451;-65
2021/09/10 13:20:01;;;;;;;2.58;2.37;;;;;;;;;;4163232;34;20199;-66
2021/09/10 13:22:27;;;;;;;4.78;2.17;;;;;;;;;;4164737;34;20512;-68
2021/09/10 13:24:54;;;;;;;4.43;2.60;;;;;;;;;;4163063;34;20106;-67
2021/09/10 13:27:19;;;;;;;4.53;2.40;;;;;;;;;;4163348;34;20463;-68
2021/09/10 13:29:46;;;;;;;2.20;2.00;;;;;;;;;;4161176;34;20106;-68
2021/09/10 13:32:11;;;;;;;3.87;1.87;;;;;;;;;;4152052;34;20125;-68
2021/09/10 13:34:38;;;;;;;1.60;1.50;;;;;;;;;;4164430;34;20557;-68
2021/09/10 13:37:13;;;;;;;2.05;1.90;;;;;;;;;;4164708;34;20122;-66
2021/09/10 13:39:40;;;;;;;1.85;1.70;;;;;;;;;;4164459;34;20595;-66
2021/09/10 13:42:06;;;;;;;1.77;1.67;;;;;;;;;;4164263;34;20118;-66
2021/09/10 13:44:32;;;;;;;2.05;1.85;;;;;;;;;;4163600;34;20118;-66
2021/09/10 13:46:58;;;;;;;2.85;1.90;;;;;;;;;;4162921;34;20548;-66
2021/09/10 13:49:24;;;;;;;3.53;1.60;;;;;;;;;;4164290;34;20126;-66
2021/09/10 13:51:52;;;;;;;2.33;1.70;;;;;;;;;;4151769;34;20178;-67
2021/09/10 13:54:19;;;;;;;1.60;1.50;;;;;;;;;;4163076;34;20127;-67
2021/09/10 13:56:45;;;;;;;7.22;1.60;;;;;;;;;;4151688;34;20099;-68
2021/09/10 13:59:11;;;;;;;1.70;1.60;;;;;;;;;;4162906;34;20125;-69
2021/09/10 14:01:37;;;;;;;3.72;3.33;;;;;;;;;;4162984;34;20485;-68
2021/09/10 14:04:06;;;;;;;3.33;2.80;;;;;;;;;;4164380;34;20134;-68
2021/09/10 14:06:32;;;;;;;5.15;2.30;;;;;;;;;;4163008;34;20432;-68
2021/09/10 14:08:58;;;;;;;5.22;3.12;;;;;;;;;;4162786;34;20615;-68
2021/09/10 14:11:24;;;;;;;6.45;4.30;;;;;;;;;;4162818;34;20126;-66
2021/09/10 14:13:49;;;;;;;2.80;2.30;;;;;;;;;;4164272;34;20367;-67
2021/09/10 14:16:17;;;;;;;2.60;2.40;;;;;;;;;;4164082;34;20129;-67
2021/09/10 14:18:43;;;;;;;1.95;1.75;;;;;;;;;;4163134;34;20280;-67
2021/09/10 14:21:09;;;;;;;1.67;1.58;;;;;;;;;;4163982;34;20118;-69
2021/09/10 14:23:34;;;;;;;1.70;1.60;;;;;;;;;;4164107;34;20151;-68
2021/09/10 14:26:00;;;;;;;3.10;1.70;;;;;;;;;;4163865;34;20543;-66
2021/09/10 14:28:26;;;;;;;1.92;1.73;;;;;;;;;;4164269;34;20143;-66
2021/09/10 14:30:52;;;;;;;2.17;1.83;;;;;;;;;;4163786;34;20275;-66
2021/09/10 14:33:18;;;;;;;2.45;2.00;;;;;;;;;;4163967;34;20118;-66
2021/09/10 14:35:44;;;;;;;1.75;1.60;;;;;;;;;;4163835;34;20099;-64
2021/09/10 14:38:11;;;;;;;1.60;1.50;;;;;;;;;;4163871;34;20199;-66
2021/09/10 14:40:37;;;;;;;2.78;2.30;;;;;;;;;;4165399;34;20185;-67
2021/09/10 14:43:03;;;;;;;2.83;1.90;;;;;;;;;;4175773;34;20238;-66
2021/09/10 14:45:30;;;;;;;4.80;2.28;;;;;;;;;;4163643;34;20119;-66
2021/09/10 14:47:56;;;;;;;2.55;1.80;;;;;;;;;;4163529;34;20125;-65
2021/09/10 14:50:22;;;;;;;1.55;1.30;;;;;;;;;;4163752;34;20138;-66
2021/09/10 14:52:48;;;;;;;1.35;1.25;;;;;;;;;;4161092;34;20131;-67
2021/09/10 14:55:14;;;;;;;1.50;1.40;;;;;;;;;;4162020;34;20122;-64
2021/09/10 14:57:41;;;;;;;2.30;1.70;;;;;;;;;;4156088;34;20146;-66
2021/09/10 15:00:09;;;;;;;2.37;2.08;;;;;;;;;;4155645;34;20447;-67
2021/09/10 15:02:36;;;;;;;1.90;1.65;;;;;;;;;;4154733;34;20207;-68
2021/09/10 15:05:01;;;;;;;1.67;1.58;;;;;;;;;;4136888;34;20539;-68